Time;durP1;ratioP1;P1;durP2;ratioP2;P2;SDS_P1;SDS_P2;PMS_P1;PMS_P2;Temp;Humidity;BMP_temperature;BMP_pressure;BME280_temperature;BME280_humidity;BME280_pressure;Samples;Min_cycle;Max_cycle;Signal;HPM_P1;HPM_P2
2023/12/11 00:01:44;;;;;;;35.30;23.40;;;;;;;2.22;97.71;99539.35;108438;285;153697;-72
2023/12/11 00:04:19;;;;;;;42.10;23.60;;;;;;;2.20;97.45;99540.23;108341;285;175913;-71
2023/12/11 00:06:54;;;;;;;37.20;22.40;;;;;;;2.23;97.70;99537.96;108378;285;154445;-69
2023/12/11 00:09:28;;;;;;;32.80;21.00;;;;;;;2.26;97.74;99533.42;108479;285;38505;-71
2023/12/11 00:12:03;;;;;;;33.80;20.90;;;;;;;2.27;97.68;99530.15;108355;285;155529;-71
2023/12/11 00:14:38;;;;;;;32.80;20.40;;;;;;;2.32;98.00;99524.38;108517;285;38608;-71
2023/12/11 00:17:13;;;;;;;31.50;20.60;;;;;;;2.36;98.26;99523.61;108540;285;38634;-71
2023/12/11 00:19:50;;;;;;;35.80;22.10;;;;;;;2.36;97.94;99520.02;108405;285;154228;-71
2023/12/11 00:22:24;;;;;;;41.90;21.60;;;;;;;2.36;97.82;99516.40;108509;285;38342;-73
2023/12/11 00:25:01;;;;;;;32.10;19.80;;;;;;;2.37;97.76;99519.64;108358;285;154599;-71
2023/12/11 00:27:36;;;;;;;31.90;19.60;;;;;;;2.38;97.78;99519.09;108516;285;39122;-72
2023/12/11 00:30:15;;;;;;;28.10;18.60;;;;;;;2.42;97.93;99517.66;108312;285;154662;-72
2023/12/11 00:32:53;;;;;;;33.30;19.30;;;;;;;2.43;97.83;99517.81;108567;285;38466;-73
2023/12/11 00:35:29;;;;;;;29.40;19.40;;;;;;;2.43;97.93;99519.70;108459;285;38528;-73
2023/12/11 00:38:04;;;;;;;31.00;18.70;;;;;;;2.45;98.19;99515.87;108410;285;154891;-70
2023/12/11 00:40:45;;;;;;;32.20;18.70;;;;;;;2.47;98.18;99514.97;108467;285;38395;-68
2023/12/11 00:43:23;;;;;;;30.10;17.70;;;;;;;2.48;97.96;99516.67;108392;285;155551;-72
2023/12/11 00:46:01;;;;;;;28.50;17.70;;;;;;;2.49;98.16;99518.38;108331;285;175540;-70
2023/12/11 00:48:35;;;;;;;31.50;18.90;;;;;;;2.48;98.10;99513.91;108362;285;155106;-71
2023/12/11 00:51:22;;;;;;;35.80;19.90;;;;;;;2.50;98.38;99515.94;108500;285;38596;-70
2023/12/11 00:53:57;;;;;;;31.00;18.40;;;;;;;2.51;98.26;99510.59;108340;285;155460;-71
2023/12/11 00:56:31;;;;;;;28.40;18.00;;;;;;;2.52;98.38;99510.92;108532;285;39820;-69
2023/12/11 00:59:05;;;;;;;28.60;17.90;;;;;;;2.53;98.50;99510.72;108311;285;39823;-71
2023/12/11 01:01:39;;;;;;;28.60;17.00;;;;;;;2.56;98.60;99511.36;108393;285;154148;-71
2023/12/11 01:04:15;;;;;;;26.60;18.10;;;;;;;2.59;98.71;99501.30;108468;285;39649;-69
2023/12/11 01:06:52;;;;;;;31.60;18.10;;;;;;;2.62;98.62;99500.08;108355;285;153729;-69
2023/12/11 01:09:26;;;;;;;27.40;16.10;;;;;;;2.63;98.71;99498.48;108479;285;38969;-68
2023/12/11 01:12:06;;;;;;;30.20;17.20;;;;;;;2.66;98.75;99502.38;108341;285;155182;-70
2023/12/11 01:14:44;;;;;;;27.30;16.20;;;;;;;2.66;98.53;99499.45;108485;285;38897;-68
2023/12/11 01:17:20;;;;;;;27.50;17.10;;;;;;;2.67;98.54;99497.03;108491;285;38246;-72
2023/12/11 01:19:57;;;;;;;28.60;17.80;;;;;;;2.68;98.55;99490.47;108368;285;154459;-72
2023/12/11 01:22:34;;;;;;;30.60;17.30;;;;;;;2.69;98.64;99488.73;108489;285;38326;-71
2023/12/11 01:25:09;;;;;;;27.10;16.30;;;;;;;2.69;98.70;99488.38;108408;285;154312;-71
2023/12/11 01:27:48;;;;;;;24.10;15.70;;;;;;;2.71;98.81;99489.02;108489;285;38925;-73
2023/12/11 01:30:22;;;;;;;27.20;16.90;;;;;;;2.73;98.66;99485.01;108367;285;156084;-71
2023/12/11 01:32:56;;;;;;;30.10;17.40;;;;;;;2.75;98.64;99480.48;108542;285;38459;-68
2023/12/11 01:35:33;;;;;;;35.40;21.10;;;;;;;2.77;98.71;99477.71;108296;285;39379;-71
2023/12/11 01:38:07;;;;;;;27.60;15.90;;;;;;;2.75;98.78;99473.61;108375;285;155104;-70
2023/12/11 01:40:41;;;;;;;24.10;14.90;;;;;;;2.73;98.47;99475.55;108465;285;38845;-69
2023/12/11 01:43:22;;;;;;;27.00;15.30;;;;;;;2.76;98.51;99476.88;108404;285;155303;-73
2023/12/11 01:46:04;;;;;;;27.10;14.80;;;;;;;2.76;98.67;99474.11;108472;285;38464;-71
2023/12/11 01:48:40;;;;;;;26.40;16.50;;;;;;;2.79;98.84;99470.93;108368;285;154373;-70
2023/12/11 01:51:16;;;;;;;28.70;16.30;;;;;;;2.80;98.82;99469.39;108456;285;38165;-71
2023/12/11 01:53:51;;;;;;;29.30;16.20;;;;;;;2.79;98.71;99465.09;108325;285;155775;-72
2023/12/11 01:56:25;;;;;;;25.60;14.80;;;;;;;2.76;98.45;99455.85;108411;285;38385;-69
2023/12/11 01:59:02;;;;;;;29.30;14.70;;;;;;;2.77;98.60;99455.84;108447;285;39842;-69
2023/12/11 02:01:37;;;;;;;24.80;16.30;;;;;;;2.78;98.80;99454.27;108323;285;154192;-70
2023/12/11 02:04:11;;;;;;;25.30;16.00;;;;;;;2.76;98.65;99448.27;108313;285;38080;-69
2023/12/11 02:06:45;;;;;;;25.40;14.30;;;;;;;2.76;98.78;99447.25;108405;285;154354;-71
2023/12/11 02:09:21;;;;;;;23.30;14.00;;;;;;;2.77;98.66;99450.33;108576;285;39777;-71
2023/12/11 02:11:57;;;;;;;24.40;14.10;;;;;;;2.77;98.67;99449.10;108437;285;155876;-70
2023/12/11 02:14:33;;;;;;;25.10;15.50;;;;;;;2.77;98.23;99450.48;108565;285;38925;-70
2023/12/11 02:17:14;;;;;;;26.90;15.10;;;;;;;2.75;98.29;99440.88;108582;285;38444;-70
2023/12/11 02:19:48;;;;;;;26.60;15.20;;;;;;;2.78;98.75;99440.31;108384;285;154266;-68
2023/12/11 02:22:22;;;;;;;23.20;14.80;;;;;;;2.77;98.64;99437.06;108566;285;38434;-71
2023/12/11 02:25:00;;;;;;;24.60;14.30;;;;;;;2.77;98.65;99436.54;108407;285;154755;-69
2023/12/11 02:27:40;;;;;;;26.70;15.30;;;;;;;2.81;98.82;99429.58;108590;285;38453;-69
2023/12/11 02:30:16;;;;;;;25.60;13.90;;;;;;;2.82;98.85;99421.45;108365;284;155045;-68
2023/12/11 02:32:56;;;;;;;25.50;14.20;;;;;;;2.79;98.73;99419.45;108519;285;38476;-71
2023/12/11 02:35:31;;;;;;;25.90;13.80;;;;;;;2.77;98.68;99418.64;108546;285;39958;-71
2023/12/11 02:38:09;;;;;;;22.10;13.90;;;;;;;2.77;98.98;99410.38;108425;285;155431;-69
2023/12/11 02:40:43;;;;;;;24.30;14.10;;;;;;;2.78;98.92;99407.24;108519;285;39377;-70
2023/12/11 02:43:17;;;;;;;28.00;14.80;;;;;;;2.78;98.83;99405.35;108405;285;154049;-71
2023/12/11 02:45:53;;;;;;;24.20;13.90;;;;;;;2.79;98.86;99393.63;108550;285;38494;-71
2023/12/11 02:48:27;;;;;;;22.80;13.60;;;;;;;2.78;98.90;99389.15;108406;285;156037;-69
2023/12/11 02:51:01;;;;;;;21.40;14.00;;;;;;;2.80;98.99;99379.11;108532;285;38604;-70
2023/12/11 02:53:37;;;;;;;24.20;13.30;;;;;;;2.83;99.02;99366.48;108574;285;37876;-71
2023/12/11 02:56:14;;;;;;;21.00;13.50;;;;;;;2.83;98.93;99366.81;108524;285;38664;-69
2023/12/11 02:58:52;;;;;;;21.70;13.30;;;;;;;2.81;98.75;99366.36;108348;285;38114;-73
2023/12/11 03:01:26;;;;;;;23.40;13.80;;;;;;;2.77;98.56;99374.36;108418;278;154511;-70
2023/12/11 03:03:59;;;;;;;20.10;13.30;;;;;;;2.75;98.70;99384.23;108542;285;38491;-72
2023/12/11 03:06:46;;;;;;;25.40;14.00;;;;;;;2.75;98.73;99383.89;108409;285;155323;-72
2023/12/11 03:09:43;;;;;;;26.80;15.00;;;;;;;2.74;98.84;99379.27;108354;285;39068;-72
2023/12/11 03:12:31;;;;;;;25.90;15.00;;;;;;;2.72;98.99;99381.88;108458;285;154896;-71
2023/12/11 03:15:06;;;;;;;23.70;14.20;;;;;;;2.71;98.95;99377.08;108519;285;39662;-72
2023/12/11 03:17:44;;;;;;;22.80;14.40;;;;;;;2.68;99.07;99369.05;108530;285;39346;-71
2023/12/11 03:20:19;;;;;;;24.10;14.10;;;;;;;2.69;99.02;99369.55;108554;284;38629;-69
2023/12/11 03:22:53;;;;;;;30.30;16.00;;;;;;;2.70;99.19;99373.65;108605;284;39681;-71
2023/12/11 03:25:27;;;;;;;25.70;14.60;;;;;;;2.71;99.26;99379.32;108426;284;153474;-69
2023/12/11 03:28:03;;;;;;;23.50;14.50;;;;;;;2.73;99.45;99381.88;108521;285;38206;-71
2023/12/11 03:30:37;;;;;;;25.60;14.70;;;;;;;2.74;99.22;99386.49;108387;285;155010;-72
2023/12/11 03:33:11;;;;;;;26.70;15.10;;;;;;;2.76;99.33;99384.05;108559;285;39030;-73
2023/12/11 03:35:46;;;;;;;26.60;15.00;;;;;;;2.75;99.31;99381.48;108511;285;40425;-71
2023/12/11 03:38:22;;;;;;;29.50;16.70;;;;;;;2.73;99.18;99380.30;108331;285;40100;-73
2023/12/11 03:40:57;;;;;;;27.00;15.20;;;;;;;2.73;99.31;99379.62;108528;285;39861;-73
2023/12/11 03:43:31;;;;;;;29.00;16.10;;;;;;;2.74;99.38;99377.70;108447;285;155421;-69
2023/12/11 03:46:08;;;;;;;26.40;15.10;;;;;;;2.76;99.43;99373.71;108492;285;38337;-70
2023/12/11 03:48:42;;;;;;;24.60;15.20;;;;;;;2.77;99.58;99367.30;108417;284;155160;-73
2023/12/11 03:51:19;;;;;;;27.60;15.30;;;;;;;2.76;99.42;99356.14;108552;284;39030;-71
2023/12/11 03:53:53;;;;;;;25.70;13.40;;;;;;;2.75;99.44;99346.34;108458;284;155528;-69
2023/12/11 03:56:28;;;;;;;28.90;15.50;;;;;;;2.76;99.52;99336.52;108533;285;38209;-71
2023/12/11 03:59:03;;;;;;;27.50;14.70;;;;;;;2.76;99.37;99332.02;108495;285;39337;-72
2023/12/11 04:01:37;;;;;;;27.90;15.90;;;;;;;2.79;99.47;99335.59;108350;285;154284;-69
2023/12/11 04:04:15;;;;;;;27.00;14.60;;;;;;;2.77;99.52;99331.32;108469;285;38374;-69
2023/12/11 04:06:52;;;;;;;26.40;14.90;;;;;;;2.75;99.46;99329.12;108351;285;155179;-69
2023/12/11 04:09:27;;;;;;;25.60;14.50;;;;;;;2.75;99.35;99322.59;108497;285;38801;-69
2023/12/11 04:12:04;;;;;;;22.10;13.30;;;;;;;2.75;99.27;99317.91;108173;285;155391;-70
2023/12/11 04:14:38;;;;;;;24.10;14.60;;;;;;;2.75;99.38;99322.23;108284;285;38375;-70
2023/12/11 04:17:15;;;;;;;26.70;15.10;;;;;;;2.76;99.59;99324.81;108467;285;38257;-71
2023/12/11 04:19:49;;;;;;;26.00;14.40;;;;;;;2.75;99.52;99320.52;108370;285;154246;-72
2023/12/11 04:22:24;;;;;;;26.80;14.30;;;;;;;2.73;99.44;99320.55;108500;285;39129;-72
2023/12/11 04:24:58;;;;;;;27.80;14.50;;;;;;;2.75;99.50;99311.38;108413;284;154216;-73
2023/12/11 04:27:35;;;;;;;29.10;15.30;;;;;;;2.76;99.61;99300.35;108605;284;38468;-71
2023/12/11 04:30:12;;;;;;;29.90;15.80;;;;;;;2.75;99.73;99285.21;108414;284;153997;-71
2023/12/11 04:32:52;;;;;;;23.60;14.80;;;;;;;2.73;99.68;99273.88;108535;285;38163;-70
2023/12/11 04:35:26;;;;;;;23.10;14.10;;;;;;;2.72;99.57;99279.42;108426;285;38441;-69
2023/12/11 04:38:01;;;;;;;24.80;15.00;;;;;;;2.71;99.44;99284.27;108351;285;155701;-72
2023/12/11 04:40:36;;;;;;;28.40;16.10;;;;;;;2.69;99.49;99277.27;108443;285;38327;-73
2023/12/11 04:43:10;;;;;;;23.70;13.80;;;;;;;2.67;99.52;99277.99;108364;285;153627;-69
2023/12/11 04:45:49;;;;;;;30.10;15.40;;;;;;;2.65;99.75;99281.32;108481;285;38363;-71
2023/12/11 04:48:23;;;;;;;21.90;14.10;;;;;;;2.61;99.71;99280.54;108383;285;155685;-70
2023/12/11 04:50:59;;;;;;;25.40;14.40;;;;;;;2.62;99.79;99277.77;108483;285;38258;-71
2023/12/11 04:53:40;;;;;;;24.80;14.70;;;;;;;2.64;99.83;99282.55;108503;285;38235;-72
2023/12/11 04:56:20;;;;;;;25.60;14.40;;;;;;;2.61;99.66;99290.35;108299;285;39660;-71
2023/12/11 04:58:57;;;;;;;26.00;15.40;;;;;;;2.59;99.78;99303.33;108477;285;38378;-71
2023/12/11 05:01:31;;;;;;;27.80;15.10;;;;;;;2.57;99.75;99291.31;108406;285;154719;-70
2023/12/11 05:04:06;;;;;;;24.10;14.30;;;;;;;2.55;99.64;99278.95;108501;285;38286;-69
2023/12/11 05:06:40;;;;;;;26.10;14.20;;;;;;;2.57;99.77;99289.93;108386;285;154409;-71
2023/12/11 05:09:15;;;;;;;24.40;15.40;;;;;;;2.58;99.76;99296.96;108459;285;38486;-71
2023/12/11 05:11:54;;;;;;;28.30;15.00;;;;;;;2.56;99.81;99293.05;107821;285;717579;-72
2023/12/11 05:14:28;;;;;;;25.30;14.30;;;;;;;2.54;99.81;99302.73;108511;285;38282;-73
2023/12/11 05:17:02;;;;;;;24.10;14.30;;;;;;;2.52;99.85;99309.33;108514;285;38743;-69
2023/12/11 05:19:36;;;;;;;26.10;13.40;;;;;;;2.51;99.70;99315.02;108389;285;154556;-70
2023/12/11 05:22:11;;;;;;;24.50;14.10;;;;;;;2.53;99.65;99315.85;108485;285;39615;-69
2023/12/11 05:24:50;;;;;;;26.90;14.00;;;;;;;2.55;99.98;99313.89;108422;284;155546;-69
2023/12/11 05:27:28;;;;;;;27.70;14.40;;;;;;;2.56;99.97;99308.88;108554;284;38508;-70
2023/12/11 05:30:08;;;;;;;25.30;14.30;;;;;;;2.56;99.97;99311.12;108405;284;155051;-69
2023/12/11 05:32:45;;;;;;;24.20;13.70;;;;;;;2.58;100.00;99309.19;108506;285;39008;-70
2023/12/11 05:35:19;;;;;;;22.90;12.70;;;;;;;2.60;100.00;99309.65;108474;285;39386;-72
2023/12/11 05:37:54;;;;;;;24.60;12.60;;;;;;;2.62;99.93;99304.11;108389;285;154383;-71
2023/12/11 05:40:28;;;;;;;24.60;13.90;;;;;;;2.63;99.94;99303.23;108455;285;39364;-72
2023/12/11 05:43:03;;;;;;;26.20;13.70;;;;;;;2.65;99.96;99302.33;108344;285;153668;-72
2023/12/11 05:45:37;;;;;;;28.00;13.30;;;;;;;2.65;99.92;99300.77;108524;285;39608;-71
2023/12/11 05:48:11;;;;;;;25.10;12.70;;;;;;;2.66;99.95;99290.92;108373;285;154614;-69
2023/12/11 05:50:47;;;;;;;24.90;12.80;;;;;;;2.69;99.95;99289.83;108428;285;39397;-69
2023/12/11 05:53:22;;;;;;;28.70;13.40;;;;;;;2.69;99.93;99285.17;108461;285;37932;-73
2023/12/11 05:55:56;;;;;;;29.40;13.30;;;;;;;2.69;99.84;99284.65;108325;285;155100;-73
2023/12/11 05:58:30;;;;;;;22.30;12.20;;;;;;;2.69;99.84;99281.74;108502;285;38435;-72
2023/12/11 06:01:07;;;;;;;26.50;12.90;;;;;;;2.68;99.72;99277.63;108334;285;155379;-73
2023/12/11 06:03:42;;;;;;;24.40;12.30;;;;;;;2.69;99.81;99275.02;108468;285;39861;-70
2023/12/11 06:06:30;;;;;;;23.50;11.80;;;;;;;2.69;99.80;99271.22;108309;285;154815;-69
2023/12/11 06:09:04;;;;;;;26.10;11.90;;;;;;;2.71;99.89;99262.56;108424;285;38241;-71
2023/12/11 06:11:39;;;;;;;23.10;12.70;;;;;;;2.72;99.97;99261.88;108525;285;39527;-73
2023/12/11 06:14:19;;;;;;;23.50;11.90;;;;;;;2.72;99.92;99265.98;108306;285;154155;-72
2023/12/11 06:16:53;;;;;;;25.50;11.00;;;;;;;2.71;99.85;99258.10;108512;285;38470;-71
2023/12/11 06:19:31;;;;;;;22.90;11.00;;;;;;;2.70;99.91;99261.55;107612;284;1104556;-71
2023/12/11 06:22:06;;;;;;;20.10;10.90;;;;;;;2.72;99.92;99264.64;108581;284;38251;-71
2023/12/11 06:24:45;;;;;;;23.50;12.00;;;;;;;2.76;100.00;99257.64;108549;284;38228;-71
2023/12/11 06:27:19;;;;;;;24.10;11.40;;;;;;;2.78;100.00;99251.05;108608;284;38395;-73
2023/12/11 06:29:53;;;;;;;22.40;11.40;;;;;;;2.78;100.00;99248.11;108588;284;38794;-72
2023/12/11 06:32:31;;;;;;;26.50;11.30;;;;;;;2.79;100.00;99241.19;108465;284;175537;-70
2023/12/11 06:35:08;;;;;;;21.90;10.80;;;;;;;2.79;99.94;99231.72;108577;284;38227;-69
2023/12/11 06:37:44;;;;;;;22.10;11.30;;;;;;;2.80;99.89;99234.30;108578;284;38173;-71
2023/12/11 06:40:20;;;;;;;25.30;12.70;;;;;;;2.82;99.94;99233.54;108562;284;38558;-72
2023/12/11 06:42:57;;;;;;;24.50;12.60;;;;;;;2.85;99.99;99231.73;108627;284;38180;-72
2023/12/11 06:45:33;;;;;;;26.60;12.00;;;;;;;2.86;99.98;99241.19;108546;285;38331;-70
2023/12/11 06:48:12;;;;;;;23.20;11.50;;;;;;;2.86;99.93;99235.17;108614;284;38230;-71
2023/12/11 06:50:47;;;;;;;23.50;10.40;;;;;;;2.85;99.64;99238.48;108511;284;39973;-71
2023/12/11 06:53:21;;;;;;;20.40;11.50;;;;;;;2.82;99.71;99232.52;108545;284;38610;-73
2023/12/11 06:55:55;;;;;;;21.70;12.10;;;;;;;2.82;99.85;99227.86;108600;284;38432;-74
2023/12/11 06:58:32;;;;;;;27.90;12.40;;;;;;;2.82;99.84;99223.73;108557;284;39882;-71
2023/12/11 07:01:09;;;;;;;23.00;12.30;;;;;;;2.82;99.97;99225.45;108580;284;39971;-69
2023/12/11 07:03:48;;;;;;;20.10;11.70;;;;;;;2.83;99.97;99220.77;108575;284;38234;-71
2023/12/11 07:06:25;;;;;;;23.20;12.60;;;;;;;2.83;99.81;99221.45;108472;284;175970;-73
2023/12/11 07:08:59;;;;;;;26.50;13.30;;;;;;;2.82;99.77;99214.94;108559;284;38302;-72
2023/12/11 07:11:34;;;;;;;19.00;11.00;;;;;;;2.80;99.77;99211.72;108613;284;39443;-72
2023/12/11 07:14:08;;;;;;;24.60;12.70;;;;;;;2.80;99.67;99211.22;108585;284;39538;-70
2023/12/11 07:16:42;;;;;;;19.80;11.10;;;;;;;2.78;99.75;99204.35;108612;284;38287;-71
2023/12/11 07:19:19;;;;;;;24.20;12.30;;;;;;;2.80;99.78;99194.50;108567;284;38793;-68
2023/12/11 07:21:54;;;;;;;23.30;12.80;;;;;;;2.80;99.86;99189.32;108592;284;38347;-70
2023/12/11 07:24:31;;;;;;;23.10;12.30;;;;;;;2.80;99.94;99187.94;108569;284;40042;-68
2023/12/11 07:27:12;;;;;;;22.70;12.00;;;;;;;2.81;99.87;99185.52;108612;283;39887;-72
2023/12/11 07:29:46;;;;;;;22.40;11.90;;;;;;;2.83;99.87;99189.27;108537;284;39993;-71
2023/12/11 07:32:21;;;;;;;24.60;11.90;;;;;;;2.83;99.73;99185.65;108579;284;38183;-71
2023/12/11 07:34:57;;;;;;;28.00;12.70;;;;;;;2.85;99.92;99180.06;108621;283;38266;-71
2023/12/11 07:37:32;;;;;;;22.50;11.60;;;;;;;2.86;99.88;99179.38;108591;284;40377;-70
2023/12/11 07:40:10;;;;;;;23.20;12.20;;;;;;;2.84;99.76;99182.18;108588;284;38192;-72
2023/12/11 07:42:44;;;;;;;25.00;12.80;;;;;;;2.83;99.78;99180.98;108606;284;38272;-68
2023/12/11 07:45:19;;;;;;;22.50;12.00;;;;;;;2.82;99.74;99183.43;108575;283;38745;-69
2023/12/11 07:47:52;;;;;;;23.70;13.10;;;;;;;2.83;99.75;99183.23;108627;283;38266;-70
2023/12/11 07:50:27;;;;;;;27.80;13.50;;;;;;;2.85;99.93;99174.03;108507;284;37894;-70
2023/12/11 07:53:04;;;;;;;20.50;11.50;;;;;;;2.86;99.82;99164.38;108571;284;38464;-73
2023/12/11 07:55:40;;;;;;;21.10;11.30;;;;;;;2.87;99.92;99166.09;108598;284;39358;-71
2023/12/11 07:58:17;;;;;;;23.10;11.80;;;;;;;2.84;99.97;99164.26;108566;284;38242;-69
2023/12/11 08:00:53;;;;;;;18.90;11.90;;;;;;;2.88;99.98;99158.48;108546;284;38221;-70
2023/12/11 08:03:35;;;;;;;22.70;11.70;;;;;;;2.91;100.00;99152.18;108609;284;39662;-70
2023/12/11 08:06:11;;;;;;;20.90;12.60;;;;;;;2.95;100.00;99163.11;108533;284;38223;-69
2023/12/11 08:08:49;;;;;;;23.30;12.10;;;;;;;2.94;99.97;99157.95;108556;280;38247;-71
2023/12/11 08:11:24;;;;;;;19.60;11.80;;;;;;;2.95;99.85;99157.42;108594;284;39931;-73
2023/12/11 08:13:59;;;;;;;22.90;12.10;;;;;;;2.96;99.77;99148.27;108546;284;38261;-73
2023/12/11 08:16:36;;;;;;;21.60;11.40;;;;;;;2.99;99.87;99138.36;108582;284;39634;-73
2023/12/11 08:19:09;;;;;;;18.90;11.60;;;;;;;3.00;99.69;99141.63;108612;284;39459;-72
2023/12/11 08:21:44;;;;;;;22.20;11.90;;;;;;;2.99;99.57;99134.06;108637;284;38946;-72
2023/12/11 08:24:18;;;;;;;20.60;11.40;;;;;;;2.96;99.41;99132.60;108575;284;38782;-72
2023/12/11 08:26:52;;;;;;;18.60;11.10;;;;;;;2.97;99.63;99130.50;108589;284;38827;-70
2023/12/11 08:29:29;;;;;;;21.70;12.20;;;;;;;3.00;99.61;99136.42;108569;284;41996;-69
2023/12/11 08:32:03;;;;;;;20.70;11.40;;;;;;;3.01;99.62;99134.70;108564;284;38251;-71
2023/12/11 08:34:38;;;;;;;19.30;11.00;;;;;;;3.01;99.63;99131.41;108603;284;40522;-72
2023/12/11 08:37:13;;;;;;;18.10;9.90;;;;;;;3.01;99.57;99127.63;108585;276;38939;-71
2023/12/11 08:39:47;;;;;;;19.50;10.40;;;;;;;3.04;99.57;99119.61;108583;284;39249;-70
2023/12/11 08:42:24;;;;;;;18.80;10.70;;;;;;;3.07;99.69;99116.77;108592;284;39424;-68
2023/12/11 08:45:03;;;;;;;17.30;10.00;;;;;;;3.13;99.75;99114.92;108593;283;38729;-69
2023/12/11 08:47:44;;;;;;;18.90;10.60;;;;;;;3.12;99.41;99113.21;108625;284;38353;-70
2023/12/11 08:50:21;;;;;;;19.60;10.10;;;;;;;3.11;99.50;99105.82;108547;284;38492;-70
2023/12/11 08:52:56;;;;;;;16.70;10.10;;;;;;;3.12;99.46;99097.36;108575;284;38169;-69
2023/12/11 08:55:33;;;;;;;23.40;10.70;;;;;;;3.13;99.37;99094.58;108599;284;38502;-68
2023/12/11 08:58:11;;;;;;;17.90;9.70;;;;;;;3.15;99.37;99086.06;108577;284;38748;-68
2023/12/11 09:00:52;;;;;;;18.60;10.30;;;;;;;3.17;99.38;99083.24;108611;284;39408;-68
2023/12/11 09:03:29;;;;;;;19.90;10.30;;;;;;;3.20;99.49;99086.09;108562;284;38486;-69
2023/12/11 09:06:09;;;;;;;15.50;9.20;;;;;;;3.19;99.29;99084.08;108571;284;40228;-68
2023/12/11 09:08:50;;;;;;;20.20;10.00;;;;;;;3.18;99.30;99083.23;108580;284;38393;-73
2023/12/11 09:11:28;;;;;;;15.20;8.40;;;;;;;3.19;99.37;99081.98;108559;284;38199;-71
2023/12/11 09:14:05;;;;;;;13.90;8.90;;;;;;;3.22;99.41;99077.92;108579;283;38180;-71
2023/12/11 09:16:39;;;;;;;15.80;9.40;;;;;;;3.26;99.53;99075.60;108593;284;38608;-72
2023/12/11 09:19:14;;;;;;;18.70;8.90;;;;;;;3.27;99.35;99070.58;108582;284;39043;-71
2023/12/11 09:21:49;;;;;;;16.20;8.60;;;;;;;3.28;99.34;99065.71;108632;284;38402;-72
2023/12/11 09:24:24;;;;;;;17.40;8.30;;;;;;;3.30;99.41;99066.15;108584;284;38804;-69
2023/12/11 09:26:59;;;;;;;14.20;7.60;;;;;;;3.33;99.38;99067.97;108569;284;38805;-71
2023/12/11 09:29:35;;;;;;;12.60;8.30;;;;;;;3.34;99.43;99066.02;108550;284;38621;-70
2023/12/11 09:32:10;;;;;;;16.60;8.10;;;;;;;3.36;99.56;99063.90;108579;283;38284;-73
2023/12/11 09:34:44;;;;;;;16.10;7.80;;;;;;;3.39;99.68;99061.06;108558;284;38911;-70
2023/12/11 09:37:19;;;;;;;14.10;7.70;;;;;;;3.42;99.58;99058.92;108606;284;39791;-71
2023/12/11 09:39:53;;;;;;;12.90;7.20;;;;;;;3.46;99.66;99055.17;108568;283;38381;-71
2023/12/11 09:42:31;;;;;;;15.90;8.20;;;;;;;3.49;99.66;99052.48;108578;284;38211;-73
2023/12/11 09:45:07;;;;;;;15.70;8.00;;;;;;;3.51;99.63;99047.77;108574;284;38618;-71
2023/12/11 09:47:50;;;;;;;16.40;7.00;;;;;;;3.53;99.58;99046.33;108619;284;38177;-73
2023/12/11 09:50:24;;;;;;;17.30;7.40;;;;;;;3.53;99.39;99041.64;108587;284;38233;-72
2023/12/11 09:52:59;;;;;;;17.10;7.60;;;;;;;3.55;99.41;99040.40;108574;284;38208;-70
2023/12/11 09:55:35;;;;;;;13.00;7.20;;;;;;;3.57;99.47;99038.81;108595;284;38436;-70
2023/12/11 09:58:09;;;;;;;13.90;8.30;;;;;;;3.55;99.33;99037.14;108636;284;38390;-70
2023/12/11 10:00:44;;;;;;;13.00;6.80;;;;;;;3.55;99.33;99035.06;108565;284;38258;-70
2023/12/11 10:03:20;;;;;;;17.20;7.90;;;;;;;3.60;99.55;99021.98;108583;284;38876;-71
2023/12/11 10:05:56;;;;;;;11.30;6.70;;;;;;;3.65;99.53;99017.86;108608;284;38677;-71
2023/12/11 10:08:33;;;;;;;10.00;7.00;;;;;;;3.68;99.60;99017.77;108594;284;38196;-72
2023/12/11 10:11:24;;;;;;;14.20;7.90;;;;;;;3.69;99.56;99008.60;108594;284;38495;-73
2023/12/11 10:14:05;;;;;;;12.00;6.30;;;;;;;3.67;99.35;99007.45;108596;284;38756;-72
2023/12/11 11:06:16;;;;;;;21.30;12.30;;;;;;;3.58;100.00;98967.54;104434;324;618504;-73
2023/12/11 11:08:57;;;;;;;12.40;7.20;;;;;;;3.81;100.00;98963.52;103068;310;5004984;-73
2023/12/11 11:14:55;;;;;;;31.70;16.80;;;;;;;3.99;100.00;98965.86;106473;306;264929;-73
2023/12/11 11:17:43;;;;;;;19.40;11.50;;;;;;;4.06;100.00;98959.58;106361;309;153408;-72
2023/12/11 11:20:18;;;;;;;18.00;9.50;;;;;;;4.12;100.00;98961.09;106710;309;38294;-72
2023/12/11 11:26:23;;;;;;;28.30;15.50;;;;;;;4.27;100.00;98955.59;106878;308;38244;-71
2023/12/11 11:28:59;;;;;;;36.60;19.00;;;;;;;4.33;100.00;98954.30;106680;306;153467;-71
2023/12/11 11:31:54;;;;;;;26.10;13.50;;;;;;;4.38;100.00;98949.83;106703;313;39554;-72
2023/12/11 11:34:47;;;;;;;17.70;11.30;;;;;;;4.42;100.00;98949.71;106825;312;38315;-73
2023/12/11 11:37:51;;;;;;;16.70;9.10;;;;;;;4.45;100.00;98937.13;106768;308;38383;-73
2023/12/11 11:40:37;;;;;;;19.20;11.10;;;;;;;4.48;100.00;98946.36;106848;308;38466;-73
2023/12/11 11:43:15;;;;;;;;;;;;;;;4.51;100.00;98941.06;106715;310;38572;-73
2023/12/11 11:45:49;;;;;;;22.00;12.40;;;;;;;4.56;100.00;98940.01;106845;308;39524;-72
2023/12/11 11:48:23;;;;;;;14.80;8.30;;;;;;;4.61;100.00;98940.69;106627;308;154365;-72
2023/12/11 11:50:59;;;;;;;12.90;7.00;;;;;;;4.62;100.00;98940.50;107058;305;38455;-72
2023/12/11 11:53:34;;;;;;;21.60;11.60;;;;;;;4.63;100.00;98933.90;107067;305;153024;-74
2023/12/11 11:56:12;;;;;;;17.30;9.70;;;;;;;4.68;100.00;98940.98;107171;305;38999;-74
2023/12/11 11:58:44;;;;;;;;;;;;;;;4.68;100.00;98937.02;107272;305;39645;-71
2023/12/11 12:11:00;;;;;;;25.40;10.60;;;;;;;4.71;100.00;98929.83;108527;305;153758;-72
2023/12/11 12:13:38;;;;;;;25.10;13.60;;;;;;;4.73;100.00;98925.42;108526;306;38788;-72
2023/12/11 12:16:10;;;;;;;;;;;;;;;4.80;100.00;98925.66;108607;305;38500;-72
2023/12/11 12:18:54;;;;;;;33.90;16.50;;;;;;;4.87;100.00;98922.29;108458;306;140351;-73
2023/12/11 12:21:28;;;;;;;18.10;9.70;;;;;;;4.97;100.00;98922.29;108596;306;38191;-72
2023/12/11 12:24:09;;;;;;;22.10;12.30;;;;;;;5.04;100.00;98918.19;108435;306;153192;-72
2023/12/11 12:26:43;;;;;;;14.70;8.90;;;;;;;5.09;100.00;98914.89;108566;306;39381;-72
2023/12/11 12:29:17;;;;;;;13.40;6.60;;;;;;;5.15;99.96;98919.64;108409;303;153674;-72
2023/12/11 12:35:19;;;;;;;14.50;8.20;;;;;;;5.20;99.30;98916.88;107916;306;908527;-72
2023/12/11 12:41:33;;;;;;;17.60;10.60;;;;;;;5.20;99.24;98913.41;108486;306;153893;-72
2023/12/11 12:44:07;;;;;;;17.70;9.30;;;;;;;5.26;99.22;98910.06;108054;304;906048;-72
2023/12/11 12:46:45;;;;;;;13.40;7.40;;;;;;;5.28;99.13;98911.02;108733;304;38626;-72
2023/12/11 12:49:21;;;;;;;12.90;7.40;;;;;;;5.31;99.20;98912.09;108417;306;152740;-71
2023/12/11 12:55:36;;;;;;;20.50;12.00;;;;;;;5.25;98.49;98915.31;108662;304;38271;-72
2023/12/11 12:58:10;;;;;;;15.50;9.40;;;;;;;5.27;98.51;98917.27;108718;305;39939;-72
2023/12/11 13:00:44;;;;;;;15.60;9.30;;;;;;;5.27;98.34;98916.79;108558;305;152903;-73
2023/12/11 13:03:20;;;;;;;25.00;15.30;;;;;;;5.25;98.27;98921.50;108720;305;38262;-72
2023/12/11 13:05:57;;;;;;;29.70;15.70;;;;;;;5.26;98.19;98921.48;108552;309;154777;-72
2023/12/11 13:08:43;;;;;;;22.20;11.30;;;;;;;5.27;98.25;98926.48;108645;305;38286;-72
2023/12/11 13:11:17;;;;;;;18.50;8.90;;;;;;;5.27;98.10;98931.46;108461;305;154092;-72
2023/12/11 13:14:02;;;;;;;27.70;14.60;;;;;;;5.30;98.15;98929.77;108627;305;38436;-72
2023/12/11 13:20:27;;;;;;;22.50;11.30;;;;;;;5.29;97.90;98936.41;108638;304;38138;-72
2023/12/11 13:23:02;;;;;;;18.20;9.00;;;;;;;5.27;97.80;98940.30;108726;304;39367;-72
2023/12/11 13:25:36;;;;;;;15.80;8.60;;;;;;;5.28;97.87;98936.80;108409;304;153439;-72
2023/12/11 13:28:10;;;;;;;19.60;11.20;;;;;;;5.28;97.71;98939.05;108599;306;41498;-72